Time;durP1;ratioP1;P1;durP2;ratioP2;P2;SDS_P1;SDS_P2;PMS_P1;PMS_P2;Temp;Humidity;BMP_temperature;BMP_pressure;BME280_temperature;BME280_humidity;BME280_pressure;Samples;Min_cycle;Max_cycle;Signal;HPM_P1;HPM_P2
2020/12/14 00:02:25;;;;;;;4.13;2.70;;;6.00;99.90;;;;;;5011719;28;20180;-78
2020/12/14 00:04:52;;;;;;;3.67;2.67;;;5.90;99.90;;;;;;5012110;28;20551;-77
2020/12/14 00:07:19;;;;;;;7.37;2.80;;;6.00;99.90;;;;;;5011919;28;20281;-78
2020/12/14 00:09:47;;;;;;;5.93;2.50;;;5.90;99.90;;;;;;5011910;28;20585;-78
2020/12/14 00:12:13;;;;;;;4.97;2.37;;;5.90;99.90;;;;;;5011268;28;20544;-77
2020/12/14 00:14:38;;;;;;;5.67;2.50;;;6.00;99.90;;;;;;5012758;28;20168;-77
2020/12/14 00:17:04;;;;;;;6.73;2.60;;;6.00;99.90;;;;;;4994882;28;20180;-78
2020/12/14 00:19:30;;;;;;;4.40;2.37;;;6.00;99.90;;;;;;5011411;28;20188;-78
2020/12/14 00:21:55;;;;;;;6.10;2.57;;;6.10;99.90;;;;;;5011344;28;20182;-78
2020/12/14 00:24:21;;;;;;;6.00;2.50;;;6.10;99.90;;;;;;4995132;28;20179;-78
2020/12/14 00:26:50;;;;;;;7.73;2.43;;;6.00;99.90;;;;;;5010725;28;20203;-78
2020/12/14 00:29:16;;;;;;;7.63;2.67;;;6.10;99.90;;;;;;4995293;28;20211;-78
2020/12/14 00:31:41;;;;;;;6.03;2.27;;;6.10;99.90;;;;;;5010886;28;20183;-78
2020/12/14 00:34:07;;;;;;;6.57;2.40;;;6.20;99.90;;;;;;5011516;28;20187;-78
2020/12/14 00:36:32;;;;;;;6.87;2.50;;;6.20;99.90;;;;;;4994996;28;20190;-78
2020/12/14 00:38:58;;;;;;;6.33;2.37;;;6.20;99.90;;;;;;4995155;28;20203;-78
2020/12/14 00:41:23;;;;;;;4.93;2.50;;;6.20;99.90;;;;;;5010760;28;20176;-78
2020/12/14 00:43:49;;;;;;;9.03;2.93;;;6.30;99.90;;;;;;4994818;28;20175;-78
2020/12/14 00:46:15;;;;;;;5.10;2.27;;;6.20;99.90;;;;;;5010395;28;20195;-77
2020/12/14 00:48:41;;;;;;;4.80;2.60;;;6.30;99.90;;;;;;4994264;28;20207;-78
2020/12/14 00:51:06;;;;;;;6.13;2.60;;;6.30;99.90;;;;;;5010878;28;20241;-78
2020/12/14 00:53:32;;;;;;;7.47;1.90;;;6.30;99.90;;;;;;5010973;28;20175;-77
2020/12/14 00:56:01;;;;;;;4.47;2.20;;;6.40;99.90;;;;;;5011037;28;20576;-78
2020/12/14 00:58:26;;;;;;;8.67;2.17;;;6.30;99.90;;;;;;5010985;28;20177;-78
2020/12/14 01:00:52;;;;;;;6.77;2.33;;;6.30;99.90;;;;;;5010719;28;20689;-78
2020/12/14 01:03:18;;;;;;;2.83;2.20;;;6.40;99.90;;;;;;4994472;28;20250;-78
2020/12/14 01:05:43;;;;;;;4.97;2.30;;;6.50;99.90;;;;;;5010979;28;20180;-77
2020/12/14 01:08:09;;;;;;;7.90;2.30;;;6.40;99.90;;;;;;5010929;28;20181;-78
2020/12/14 01:10:34;;;;;;;4.00;2.00;;;6.40;99.90;;;;;;5010346;28;20564;-77
2020/12/14 01:13:00;;;;;;;6.63;2.70;;;6.50;99.90;;;;;;5010828;28;20172;-79
2020/12/14 01:15:25;;;;;;;6.63;2.30;;;6.50;99.90;;;;;;4994700;28;20172;-77
2020/12/14 01:17:51;;;;;;;5.57;2.10;;;6.50;99.90;;;;;;5010873;28;20180;-78
2020/12/14 01:20:16;;;;;;;8.30;2.67;;;6.50;99.90;;;;;;4994029;28;20238;-78
2020/12/14 01:22:45;;;;;;;5.33;2.20;;;6.50;99.90;;;;;;5010867;28;20180;-79
2020/12/14 01:25:10;;;;;;;7.00;2.13;;;6.60;99.90;;;;;;4994335;28;20183;-78
2020/12/14 01:27:36;;;;;;;7.27;2.30;;;6.60;99.90;;;;;;5010677;28;20167;-78
2020/12/14 01:30:02;;;;;;;6.70;2.40;;;6.50;99.90;;;;;;5010330;28;20204;-78
2020/12/14 01:32:27;;;;;;;6.57;2.00;;;6.50;99.90;;;;;;5010864;28;20521;-78
2020/12/14 01:34:53;;;;;;;4.97;2.07;;;6.50;99.90;;;;;;5010616;28;20175;-78
2020/12/14 01:37:18;;;;;;;4.73;1.77;;;6.60;99.90;;;;;;5010336;28;20176;-78
2020/12/14 01:39:44;;;;;;;3.77;2.10;;;6.70;99.90;;;;;;4993835;28;20290;-78
2020/12/14 01:42:09;;;;;;;4.60;2.07;;;6.60;99.90;;;;;;5010614;28;20179;-78
2020/12/14 01:44:35;;;;;;;5.87;1.70;;;6.60;99.90;;;;;;5010784;28;20179;-78
2020/12/14 01:47:02;;;;;;;6.50;2.00;;;6.60;99.90;;;;;;5010267;28;20178;-78
2020/12/14 01:49:31;;;;;;;3.27;1.63;;;6.60;99.90;;;;;;5010598;28;20575;-78
2020/12/14 01:51:57;;;;;;;4.30;2.17;;;6.70;99.90;;;;;;4994427;28;20199;-78
2020/12/14 01:54:26;;;;;;;5.00;1.80;;;6.70;99.90;;;;;;4994076;28;20639;-78
2020/12/14 01:56:51;;;;;;;4.87;1.50;;;6.70;99.90;;;;;;5010894;28;20172;-78
2020/12/14 01:59:17;;;;;;;3.63;1.77;;;6.70;99.90;;;;;;5013583;28;20294;-79
2020/12/14 02:01:42;;;;;;;4.67;1.80;;;6.80;99.90;;;;;;5013779;28;20184;-78
2020/12/14 02:04:08;;;;;;;2.90;1.70;;;6.80;99.90;;;;;;5014076;28;20175;-78
2020/12/14 02:06:33;;;;;;;5.67;1.90;;;6.80;99.90;;;;;;5013715;28;20176;-78
2020/12/14 02:08:59;;;;;;;4.73;2.10;;;6.70;99.90;;;;;;4997462;28;20210;-78
2020/12/14 02:11:25;;;;;;;5.33;1.90;;;6.80;99.90;;;;;;4997215;28;20293;-76
2020/12/14 02:13:50;;;;;;;3.40;1.93;;;6.80;99.90;;;;;;4997413;28;20220;-76
2020/12/14 02:16:16;;;;;;;3.60;1.90;;;6.80;99.90;;;;;;5013550;28;20175;-76
2020/12/14 02:18:41;;;;;;;4.83;2.10;;;6.80;99.90;;;;;;4997501;28;20222;-76
2020/12/14 02:21:07;;;;;;;4.20;1.73;;;7.00;99.90;;;;;;4997050;28;20183;-76
2020/12/14 02:23:32;;;;;;;5.80;1.70;;;6.90;99.90;;;;;;5013086;28;20180;-76
2020/12/14 02:25:58;;;;;;;3.40;1.50;;;6.90;99.90;;;;;;4996924;28;20178;-76
2020/12/14 02:28:23;;;;;;;6.73;1.70;;;6.90;99.90;;;;;;5013422;28;20192;-76
2020/12/14 02:30:49;;;;;;;4.20;1.70;;;6.90;99.90;;;;;;5013094;28;20207;-76
2020/12/14 02:33:15;;;;;;;4.23;1.50;;;6.90;99.90;;;;;;5014778;28;20186;-76
2020/12/14 02:35:45;;;;;;;5.43;1.60;;;7.00;99.90;;;;;;4996946;28;20172;-76
2020/12/14 02:38:11;;;;;;;3.87;1.80;;;6.90;99.90;;;;;;4996517;28;20232;-77
2020/12/14 02:40:36;;;;;;;4.43;1.70;;;6.90;99.90;;;;;;4992549;28;20282;-75
2020/12/14 02:43:02;;;;;;;3.43;1.50;;;7.00;99.90;;;;;;4994933;28;20186;-76
2020/12/14 02:45:28;;;;;;;3.27;1.40;;;7.00;99.90;;;;;;4996816;28;20180;-76
2020/12/14 02:47:53;;;;;;;4.43;1.50;;;7.00;99.90;;;;;;5012628;28;20191;-76
2020/12/14 02:50:19;;;;;;;3.80;1.37;;;7.00;99.90;;;;;;5013167;28;20209;-76
2020/12/14 02:52:44;;;;;;;2.90;1.30;;;7.00;99.90;;;;;;5012790;28;20256;-77
2020/12/14 02:55:10;;;;;;;3.60;1.60;;;7.00;99.90;;;;;;5013290;28;20193;-76
2020/12/14 02:57:35;;;;;;;3.87;1.50;;;7.00;99.90;;;;;;4996428;28;20796;-76
2020/12/14 03:00:02;;;;;;;4.37;1.37;;;7.10;99.90;;;;;;5012620;28;20214;-76
2020/12/14 03:02:28;;;;;;;4.00;1.40;;;7.10;99.90;;;;;;5012454;28;20175;-75
2020/12/14 03:04:54;;;;;;;2.50;1.40;;;7.00;99.90;;;;;;5012775;28;20550;-76
2020/12/14 03:07:19;;;;;;;5.07;1.90;;;7.00;99.90;;;;;;5012209;28;20579;-76
2020/12/14 03:09:45;;;;;;;2.50;1.40;;;7.10;99.90;;;;;;4995281;28;20704;-76
2020/12/14 03:12:11;;;;;;;3.97;1.30;;;7.10;99.90;;;;;;5012533;28;20653;-75
2020/12/14 03:14:37;;;;;;;3.97;1.60;;;7.10;99.90;;;;;;4996423;28;20186;-77
2020/12/14 03:17:02;;;;;;;4.40;1.53;;;7.10;99.90;;;;;;5012531;28;20256;-76
2020/12/14 03:19:28;;;;;;;2.83;1.50;;;7.10;99.90;;;;;;4995760;28;20199;-76
2020/12/14 03:21:53;;;;;;;5.83;1.43;;;7.20;99.90;;;;;;5012482;28;20185;-76
2020/12/14 03:24:20;;;;;;;5.23;1.63;;;7.20;99.90;;;;;;5013737;28;20168;-76
2020/12/14 03:26:48;;;;;;;4.80;1.20;;;7.20;99.90;;;;;;5012068;28;20548;-76
2020/12/14 03:29:13;;;;;;;5.37;1.40;;;7.10;99.90;;;;;;5012293;28;20282;-76
2020/12/14 03:31:39;;;;;;;3.23;1.60;;;7.10;99.90;;;;;;5012109;28;20267;-75
2020/12/14 03:34:04;;;;;;;2.70;1.30;;;7.20;99.90;;;;;;5013378;28;20517;-76
2020/12/14 03:36:30;;;;;;;2.50;1.27;;;7.10;99.90;;;;;;5012255;28;20302;-75
2020/12/14 03:38:55;;;;;;;3.93;1.50;;;7.20;99.90;;;;;;4995301;28;20227;-76
2020/12/14 03:41:21;;;;;;;3.73;1.37;;;7.10;99.90;;;;;;5012172;28;20662;-76
2020/12/14 03:43:47;;;;;;;4.40;1.50;;;7.10;99.90;;;;;;5011988;28;20186;-75
2020/12/14 03:46:19;;;;;;;5.20;1.57;;;7.10;99.90;;;;;;5011813;28;20466;-76
2020/12/14 03:48:45;;;;;;;1.97;1.27;;;7.20;99.90;;;;;;5011987;28;20600;-76
2020/12/14 03:51:11;;;;;;;2.73;1.17;;;7.20;99.90;;;;;;5011667;28;20274;-76
2020/12/14 03:53:37;;;;;;;5.13;1.50;;;7.20;99.90;;;;;;5011011;28;20178;-75
2020/12/14 03:56:03;;;;;;;4.20;1.53;;;7.30;99.90;;;;;;5011763;28;20531;-76
2020/12/14 03:58:28;;;;;;;2.43;1.40;;;7.40;99.90;;;;;;4995446;28;20193;-75
2020/12/14 04:00:54;;;;;;;3.83;1.20;;;7.40;99.90;;;;;;5050671;23;20200;-76
2020/12/14 04:03:21;;;;;;;3.23;1.20;;;7.40;99.90;;;;;;4978632;28;20196;-78
2020/12/14 04:05:47;;;;;;;3.37;1.07;;;7.40;99.90;;;;;;5012923;28;20168;-77
2020/12/14 04:08:12;;;;;;;5.83;1.17;;;7.50;99.90;;;;;;4962883;28;20178;-78
2020/12/14 04:10:38;;;;;;;2.80;1.30;;;7.50;99.90;;;;;;4979106;28;20298;-77
2020/12/14 04:13:03;;;;;;;3.80;1.10;;;7.60;99.90;;;;;;4991878;28;20254;-77
2020/12/14 04:15:29;;;;;;;2.23;1.20;;;7.60;99.90;;;;;;4975851;28;20184;-79
2020/12/14 04:17:54;;;;;;;2.20;1.00;;;7.50;99.90;;;;;;4975423;28;20179;-75
2020/12/14 04:20:20;;;;;;;6.27;1.50;;;7.60;99.90;;;;;;4974777;28;20178;-76
2020/12/14 04:22:49;;;;;;;4.23;1.30;;;7.60;99.90;;;;;;4975769;28;20253;-77
2020/12/14 04:25:16;;;;;;;3.70;1.87;;;7.60;99.90;;;;;;4993423;28;20257;-76
2020/12/14 04:27:41;;;;;;;3.87;1.87;;;7.60;99.90;;;;;;4991611;28;20173;-78
2020/12/14 04:30:07;;;;;;;4.17;1.50;;;7.60;99.90;;;;;;4991547;28;20202;-78
2020/12/14 04:32:32;;;;;;;4.40;1.67;;;7.60;99.90;;;;;;4975247;28;20265;-76
2020/12/14 04:34:58;;;;;;;2.23;1.20;;;7.60;99.90;;;;;;4959361;28;20275;-78
2020/12/14 04:37:23;;;;;;;4.50;1.37;;;7.60;99.90;;;;;;4975376;28;20251;-78
2020/12/14 04:39:49;;;;;;;3.67;1.30;;;7.70;99.90;;;;;;4975683;28;20212;-75
2020/12/14 04:42:15;;;;;;;3.40;1.00;;;7.70;99.90;;;;;;4975252;28;20192;-76
2020/12/14 04:44:40;;;;;;;2.83;1.10;;;7.70;99.90;;;;;;4991666;28;20282;-77
2020/12/14 04:47:11;;;;;;;4.13;1.40;;;7.70;99.90;;;;;;4975303;28;20210;-77
2020/12/14 04:49:38;;;;;;;3.10;1.10;;;7.70;99.90;;;;;;4991428;28;20556;-78
2020/12/14 04:52:04;;;;;;;1.33;1.10;;;7.60;99.90;;;;;;4975557;28;20264;-78
2020/12/14 04:54:30;;;;;;;4.30;1.10;;;7.70;99.90;;;;;;4975367;28;20626;-77
2020/12/14 04:56:55;;;;;;;3.23;1.20;;;7.60;99.90;;;;;;4959385;28;20747;-77
2020/12/14 04:59:24;;;;;;;3.53;1.20;;;7.70;99.90;;;;;;4975517;28;20192;-78
2020/12/14 05:01:50;;;;;;;3.13;1.30;;;7.70;99.90;;;;;;4975010;28;20237;-77
2020/12/14 05:04:16;;;;;;;3.70;1.27;;;7.70;99.90;;;;;;4992516;28;20644;-77
2020/12/14 05:06:49;;;;;;;2.37;1.10;;;7.70;99.90;;;;;;4991274;28;20745;-76
2020/12/14 05:09:20;;;;;;;2.70;1.20;;;7.60;99.90;;;;;;4959289;28;20191;-78
2020/12/14 05:11:46;;;;;;;6.07;1.27;;;7.70;99.90;;;;;;4958902;28;20215;-77
2020/12/14 05:14:16;;;;;;;3.10;1.20;;;7.60;99.90;;;;;;4975197;28;20667;-78
2020/12/14 05:16:42;;;;;;;6.93;1.17;;;7.50;99.90;;;;;;4975035;28;20212;-78
2020/12/14 05:19:37;;;;;;;4.63;1.20;;;7.50;99.90;;;;;;4975259;28;20210;-77
2020/12/14 05:22:03;;;;;;;3.47;1.40;;;7.50;99.90;;;;;;4962531;28;20560;-79
2020/12/14 05:24:32;;;;;;;6.23;1.40;;;7.60;99.90;;;;;;4992509;28;20200;-78
2020/12/14 05:26:58;;;;;;;5.13;1.30;;;7.70;99.90;;;;;;4958803;28;20186;-79
2020/12/14 05:29:28;;;;;;;4.30;1.20;;;7.60;99.90;;;;;;4975347;28;20228;-76
2020/12/14 05:32:04;;;;;;;5.60;1.53;;;7.70;99.90;;;;;;4976225;28;20716;-77
2020/12/14 05:34:30;;;;;;;2.43;1.10;;;7.60;99.90;;;;;;4978435;28;20175;-77
2020/12/14 05:36:58;;;;;;;4.87;1.67;;;7.70;99.90;;;;;;4978572;28;20179;-77
2020/12/14 05:39:27;;;;;;;3.80;1.30;;;7.70;99.90;;;;;;4995028;28;20251;-78
2020/12/14 05:41:53;;;;;;;4.07;1.30;;;7.70;99.90;;;;;;4963146;28;20227;-75
2020/12/14 05:44:28;;;;;;;3.00;1.07;;;7.70;99.90;;;;;;4962776;28;20203;-77
2020/12/14 05:46:53;;;;;;;4.63;1.47;;;7.70;99.90;;;;;;4979483;28;20207;-75
2020/12/14 05:49:19;;;;;;;2.93;1.10;;;7.70;99.90;;;;;;4978976;28;20663;-77
2020/12/14 05:51:45;;;;;;;2.73;1.47;;;7.70;99.90;;;;;;4962297;28;20215;-77
2020/12/14 05:54:12;;;;;;;3.90;1.40;;;7.70;99.90;;;;;;4994127;28;20255;-78
2020/12/14 05:56:38;;;;;;;3.57;1.60;;;7.80;99.90;;;;;;4961907;28;20183;-77
2020/12/14 05:59:03;;;;;;;3.73;1.40;;;7.80;99.90;;;;;;4961854;28;20651;-77
2020/12/14 06:01:29;;;;;;;7.07;1.30;;;7.80;99.90;;;;;;4994294;28;20245;-76
2020/12/14 06:03:55;;;;;;;3.73;1.30;;;7.90;99.90;;;;;;4978205;28;20550;-76
2020/12/14 06:06:20;;;;;;;5.83;1.10;;;7.90;99.90;;;;;;4962238;28;20549;-76
2020/12/14 06:08:46;;;;;;;2.80;1.50;;;7.90;99.90;;;;;;4978039;28;20179;-77
2020/12/14 06:11:12;;;;;;;2.80;1.30;;;7.80;99.90;;;;;;4995272;28;20689;-77
2020/12/14 06:13:51;;;;;;;2.63;1.63;;;7.80;99.90;;;;;;4993843;28;20193;-77
2020/12/14 06:16:26;;;;;;;2.70;1.20;;;7.70;99.90;;;;;;4977602;28;20175;-76
2020/12/14 06:18:51;;;;;;;2.57;1.50;;;7.70;99.90;;;;;;4978491;28;20172;-76
2020/12/14 06:21:25;;;;;;;4.13;1.50;;;7.80;99.90;;;;;;4993478;28;20208;-75
2020/12/14 06:23:50;;;;;;;3.10;1.53;;;7.80;99.90;;;;;;4966852;28;20236;-80
2020/12/14 06:26:16;;;;;;;4.37;1.57;;;7.80;99.90;;;;;;4961746;28;20682;-78
2020/12/14 06:28:51;;;;;;;3.50;1.50;;;7.80;99.90;;;;;;4961443;28;20193;-78
2020/12/14 06:31:39;;;;;;;4.50;1.70;;;7.90;99.90;;;;;;4978442;28;20673;-76
2020/12/14 06:34:06;;;;;;;4.57;1.70;;;8.00;99.90;;;;;;4962387;28;20172;-75
2020/12/14 06:36:39;;;;;;;3.73;1.30;;;8.00;99.90;;;;;;4977629;28;20270;-78
2020/12/14 06:39:27;;;;;;;4.87;1.50;;;8.00;99.90;;;;;;4977908;28;20236;-75
2020/12/14 06:41:53;;;;;;;3.20;1.27;;;8.10;99.90;;;;;;4977964;28;20219;-76
2020/12/14 06:44:19;;;;;;;4.00;1.33;;;8.10;99.90;;;;;;4960029;28;20267;-74
2020/12/14 06:46:45;;;;;;;2.93;1.20;;;8.20;99.90;;;;;;4992544;28;20306;-74
2020/12/14 06:49:10;;;;;;;4.07;1.20;;;8.20;99.90;;;;;;4992799;28;20179;-74
2020/12/14 06:51:56;;;;;;;4.93;1.00;;;8.20;99.90;;;;;;4976422;28;20218;-75
2020/12/14 06:54:40;;;;;;;2.50;1.50;;;8.30;99.90;;;;;;4987891;28;20195;-76
2020/12/14 06:57:06;;;;;;;3.53;1.80;;;8.40;99.90;;;;;;5007068;28;20187;-76
2020/12/14 06:59:32;;;;;;;2.83;1.37;;;8.40;99.90;;;;;;4960029;28;20180;-76
2020/12/14 07:02:02;;;;;;;4.20;1.20;;;8.40;99.90;;;;;;4976777;28;20216;-77
2020/12/14 07:04:28;;;;;;;2.90;1.37;;;8.30;99.90;;;;;;4960706;28;20560;-78
2020/12/14 07:06:56;;;;;;;4.27;1.30;;;8.30;99.90;;;;;;4993612;28;20187;-79
2020/12/14 07:09:29;;;;;;;2.50;1.43;;;8.30;99.90;;;;;;4993281;28;20288;-78
2020/12/14 07:12:15;;;;;;;2.50;1.33;;;8.30;99.90;;;;;;4960807;28;20558;-78
2020/12/14 07:14:54;;;;;;;3.77;1.30;;;8.40;99.90;;;;;;5005924;28;20557;-76
2020/12/14 07:17:25;;;;;;;4.43;1.40;;;8.40;99.90;;;;;;4976113;28;20180;-77
2020/12/14 07:19:52;;;;;;;3.60;1.30;;;8.40;99.90;;;;;;4958422;28;20267;-78
2020/12/14 07:22:18;;;;;;;5.73;1.30;;;8.50;99.90;;;;;;4975506;28;20330;-80
2020/12/14 07:24:44;;;;;;;2.60;1.40;;;8.50;99.90;;;;;;4975605;28;20199;-79
2020/12/14 07:27:10;;;;;;;3.77;1.20;;;8.50;99.90;;;;;;4975511;28;20172;-78
2020/12/14 07:29:36;;;;;;;3.07;1.43;;;8.50;99.90;;;;;;4992618;28;20260;-79
2020/12/14 07:32:05;;;;;;;3.53;1.57;;;8.60;99.90;;;;;;4960124;28;20656;-79
2020/12/14 07:34:30;;;;;;;3.47;1.10;;;8.60;99.90;;;;;;4960571;28;20180;-79
2020/12/14 07:36:56;;;;;;;3.17;1.47;;;8.60;99.90;;;;;;4976061;28;20663;-79
2020/12/14 07:39:21;;;;;;;3.80;1.40;;;8.70;99.90;;;;;;4976459;28;20185;-79
2020/12/14 07:41:47;;;;;;;3.27;1.30;;;8.70;99.90;;;;;;4976460;28;20204;-77
2020/12/14 07:44:13;;;;;;;1.60;1.20;;;8.70;99.90;;;;;;4991283;28;20188;-78
2020/12/14 07:46:38;;;;;;;3.40;1.10;;;8.80;99.90;;;;;;4974735;28;20639;-78
2020/12/14 07:49:07;;;;;;;4.73;1.40;;;8.70;99.90;;;;;;4974617;28;20261;-77
2020/12/14 07:51:43;;;;;;;1.97;1.20;;;8.80;99.90;;;;;;4976538;28;20223;-78
2020/12/14 07:54:10;;;;;;;2.40;1.20;;;8.80;99.90;;;;;;4977457;28;20211;-79
2020/12/14 07:56:56;;;;;;;1.70;1.07;;;8.90;99.90;;;;;;4975767;28;20207;-78
2020/12/14 07:59:28;;;;;;;3.00;1.43;;;8.90;99.90;;;;;;4977749;28;20234;-78
2020/12/14 08:01:54;;;;;;;3.23;1.57;;;8.90;99.90;;;;;;4977623;28;20306;-77
2020/12/14 08:04:24;;;;;;;3.50;1.20;;;8.90;99.90;;;;;;4976599;28;20183;-77
2020/12/14 08:06:50;;;;;;;1.93;1.10;;;9.00;99.90;;;;;;4976902;28;20235;-77
2020/12/14 08:09:20;;;;;;;2.47;1.20;;;9.00;99.90;;;;;;4977235;28;20194;-77
2020/12/14 08:11:46;;;;;;;2.93;1.37;;;9.00;99.90;;;;;;4977173;28;20814;-79
2020/12/14 08:14:15;;;;;;;3.70;1.60;;;8.90;99.90;;;;;;4978366;28;20593;-81
2020/12/14 08:16:42;;;;;;;3.43;1.50;;;9.00;99.90;;;;;;4992956;28;20172;-74
2020/12/14 08:19:13;;;;;;;4.10;1.23;;;9.00;99.90;;;;;;4976838;28;20528;-75
2020/12/14 08:21:40;;;;;;;3.50;1.53;;;9.10;99.90;;;;;;4976524;28;20204;-75
2020/12/14 08:24:09;;;;;;;3.07;1.17;;;9.10;99.90;;;;;;4976713;28;20176;-76
2020/12/14 08:26:34;;;;;;;3.23;1.30;;;9.10;99.90;;;;;;4959402;28;20180;-80
2020/12/14 08:29:00;;;;;;;4.30;1.50;;;9.20;99.90;;;;;;4959709;28;20203;-74
2020/12/14 08:31:26;;;;;;;2.43;1.20;;;9.10;99.90;;;;;;4958532;28;20216;-75
2020/12/14 08:33:53;;;;;;;3.37;1.20;;;9.20;99.90;;;;;;4975849;28;20175;-75
2020/12/14 08:36:18;;;;;;;2.83;1.10;;;9.20;99.90;;;;;;4975631;28;20213;-77
2020/12/14 08:38:44;;;;;;;3.20;1.40;;;9.20;99.90;;;;;;4975516;28;20254;-75
2020/12/14 08:41:10;;;;;;;3.30;1.40;;;9.10;99.90;;;;;;4975554;28;20204;-77
2020/12/14 08:43:35;;;;;;;3.77;1.30;;;9.10;99.90;;;;;;4959638;28;20180;-77
2020/12/14 08:46:15;;;;;;;3.83;1.60;;;9.10;99.90;;;;;;4975184;28;20184;-79
2020/12/14 08:48:51;;;;;;;7.17;1.50;;;9.00;99.90;;;;;;4976793;28;20199;-80
2020/12/14 08:51:27;;;;;;;3.97;1.63;;;8.90;99.90;;;;;;4977576;28;20268;-81
2020/12/14 08:53:54;;;;;;;3.60;1.63;;;8.80;99.90;;;;;;4980846;28;20178;-80
2020/12/14 08:56:21;;;;;;;1.20;1.00;;;8.80;99.90;;;;;;4960197;28;20196;-77
2020/12/14 08:58:47;;;;;;;2.87;1.37;;;8.70;99.90;;;;;;4960779;28;20180;-76
2020/12/14 09:01:12;;;;;;;3.73;1.70;;;8.70;99.90;;;;;;4991909;28;20707;-80
2020/12/14 09:04:00;;;;;;;3.23;1.30;;;8.70;99.90;;;;;;4976554;28;20184;-80
2020/12/14 09:06:36;;;;;;;4.60;1.53;;;8.70;99.90;;;;;;4977322;28;20171;-78
2020/12/14 09:09:11;;;;;;;2.60;1.40;;;8.70;99.90;;;;;;4964010;28;20182;-79
2020/12/14 09:11:46;;;;;;;2.87;1.50;;;8.70;99.90;;;;;;4998797;28;20221;-77
2020/12/14 09:14:21;;;;;;;3.13;1.60;;;8.70;99.90;;;;;;4996380;28;20183;-76
2020/12/14 09:16:48;;;;;;;4.43;1.50;;;8.80;99.90;;;;;;4980327;28;20176;-79
2020/12/14 09:19:18;;;;;;;2.80;1.80;;;8.80;99.90;;;;;;4964179;28;20666;-77
2020/12/14 09:21:44;;;;;;;2.70;1.40;;;8.80;99.90;;;;;;4980094;28;20219;-78
2020/12/14 09:24:15;;;;;;;3.70;1.67;;;8.80;99.90;;;;;;4996181;28;20180;-79
2020/12/14 09:26:41;;;;;;;2.47;1.60;;;8.80;99.90;;;;;;4997622;28;20165;-76
2020/12/14 09:29:07;;;;;;;2.80;1.80;;;8.80;99.90;;;;;;4964195;28;20214;-79
2020/12/14 09:31:33;;;;;;;4.60;1.80;;;8.80;99.90;;;;;;4983601;28;20208;-78
2020/12/14 09:33:59;;;;;;;5.23;1.73;;;8.80;99.90;;;;;;4965478;28;20196;-79
2020/12/14 09:36:24;;;;;;;3.87;1.80;;;8.70;99.90;;;;;;4963624;28;20176;-82
2020/12/14 09:38:50;;;;;;;4.03;1.93;;;8.70;99.90;;;;;;4979757;28;20200;-79
2020/12/14 09:41:15;;;;;;;5.20;2.33;;;8.70;99.90;;;;;;4963817;28;20274;-82
2020/12/14 09:43:44;;;;;;;2.73;1.73;;;8.70;99.90;;;;;;4979376;28;20195;-82
2020/12/14 09:46:10;;;;;;;4.43;2.00;;;8.60;99.90;;;;;;4962527;28;20264;-75
2020/12/14 09:48:36;;;;;;;3.80;2.30;;;8.60;99.90;;;;;;4979258;28;20182;-81
2020/12/14 09:51:03;;;;;;;3.10;2.20;;;8.50;99.90;;;;;;4963345;28;20656;-78
2020/12/14 09:53:28;;;;;;;3.40;2.50;;;8.60;99.90;;;;;;4944996;28;20184;-81
2020/12/14 09:55:54;;;;;;;4.07;2.17;;;8.50;99.90;;;;;;4960212;28;20177;-81
2020/12/14 09:58:19;;;;;;;6.13;2.53;;;8.40;99.90;;;;;;4959680;28;20219;-81
2020/12/14 10:00:45;;;;;;;3.83;2.40;;;8.40;99.90;;;;;;4960518;28;20185;-82
2020/12/14 10:03:10;;;;;;;7.73;2.70;;;8.50;99.90;;;;;;4962119;28;20262;-79
2020/12/14 10:05:36;;;;;;;5.13;2.70;;;8.50;99.90;;;;;;4962430;28;20177;-81
2020/12/14 10:08:01;;;;;;;4.93;2.50;;;8.50;99.90;;;;;;4978380;28;20610;-80
2020/12/14 10:10:27;;;;;;;5.93;2.93;;;8.50;99.90;;;;;;4995103;28;20570;-83
2020/12/14 10:12:58;;;;;;;2.90;2.43;;;8.60;99.90;;;;;;4962941;28;20292;-85
2020/12/14 10:15:24;;;;;;;4.43;2.70;;;8.60;99.90;;;;;;4963585;28;20176;-84
2020/12/14 10:17:50;;;;;;;4.77;2.60;;;8.60;99.90;;;;;;4962897;28;20177;-84
2020/12/14 10:20:15;;;;;;;3.73;2.47;;;8.60;99.90;;;;;;4962589;28;20212;-84
2020/12/14 10:22:41;;;;;;;4.10;2.80;;;8.60;99.90;;;;;;4962450;28;20195;-84
2020/12/14 10:25:06;;;;;;;5.33;2.63;;;8.60;99.90;;;;;;4979179;28;20185;-84
2020/12/14 10:27:32;;;;;;;4.47;2.80;;;8.70;99.90;;;;;;4978494;28;20182;-85
2020/12/14 10:29:57;;;;;;;4.43;2.70;;;8.70;99.90;;;;;;4962321;28;20186;-85
2020/12/14 10:32:23;;;;;;;4.80;2.60;;;8.70;99.90;;;;;;4962083;28;20196;-85
2020/12/14 10:34:48;;;;;;;5.33;2.27;;;8.70;99.90;;;;;;4962538;28;20210;-85
2020/12/14 10:37:14;;;;;;;4.53;2.43;;;8.70;99.90;;;;;;4978384;28;20180;-85
2020/12/14 10:39:39;;;;;;;3.67;2.43;;;8.70;99.90;;;;;;4961979;28;20180;-84
2020/12/14 10:42:05;;;;;;;4.53;2.73;;;8.70;99.90;;;;;;4962049;28;20211;-84
2020/12/14 10:44:30;;;;;;;5.47;2.60;;;8.80;99.90;;;;;;4962201;28;20176;-85
2020/12/14 10:47:05;;;;;;;7.47;2.87;;;8.80;99.90;;;;;;4961905;28;20671;-84
2020/12/14 10:49:31;;;;;;;5.20;2.63;;;8.80;99.90;;;;;;4962728;28;20232;-85
2020/12/14 10:51:56;;;;;;;3.23;2.40;;;8.80;99.90;;;;;;4961454;28;20625;-84
2020/12/14 10:54:22;;;;;;;4.17;2.47;;;8.80;99.90;;;;;;4961509;28;20175;-85
2020/12/14 10:56:47;;;;;;;3.43;2.70;;;8.80;99.90;;;;;;4977391;28;20183;-85
2020/12/14 10:59:13;;;;;;;4.83;2.80;;;8.80;99.90;;;;;;4977817;28;20176;-85
2020/12/14 11:01:38;;;;;;;4.27;3.10;;;8.90;99.90;;;;;;4961517;28;20315;-85
2020/12/14 11:04:04;;;;;;;5.50;2.70;;;8.90;99.90;;;;;;4977846;28;20222;-84
2020/12/14 11:06:33;;;;;;;4.53;3.07;;;8.90;99.90;;;;;;4961767;28;20191;-84
2020/12/14 11:08:59;;;;;;;6.87;2.70;;;8.90;99.90;;;;;;4961599;28;20245;-85
2020/12/14 11:11:31;;;;;;;4.50;2.50;;;8.90;99.90;;;;;;4977738;28;20238;-84
2020/12/14 11:13:56;;;;;;;5.67;2.53;;;8.90;99.90;;;;;;4961221;28;20188;-79
2020/12/14 11:16:22;;;;;;;4.73;2.93;;;8.90;99.90;;;;;;4960042;28;20187;-79
2020/12/14 11:18:48;;;;;;;5.23;2.50;;;8.90;99.90;;;;;;4977123;28;20227;-80
2020/12/14 11:21:13;;;;;;;4.03;2.80;;;9.00;99.90;;;;;;4992995;28;20213;-81
2020/12/14 11:23:39;;;;;;;6.90;3.40;;;9.00;99.90;;;;;;4992700;28;20185;-79
2020/12/14 11:26:04;;;;;;;4.87;2.70;;;9.00;99.90;;;;;;4960978;28;20283;-81
2020/12/14 11:28:30;;;;;;;6.13;2.97;;;9.00;99.90;;;;;;4960964;28;20311;-81
2020/12/14 11:30:55;;;;;;;5.87;2.97;;;9.00;99.90;;;;;;4960970;28;20617;-80
2020/12/14 11:33:21;;;;;;;6.57;3.13;;;9.00;99.90;;;;;;4961319;28;20230;-80
2020/12/14 11:35:47;;;;;;;4.50;3.10;;;9.00;99.90;;;;;;4977746;28;20180;-79
2020/12/14 11:38:12;;;;;;;3.97;2.97;;;9.10;99.90;;;;;;4960585;28;20643;-78
2020/12/14 11:40:38;;;;;;;4.03;2.87;;;9.10;99.90;;;;;;4977868;28;20187;-79
2020/12/14 11:43:04;;;;;;;7.03;3.17;;;9.20;99.90;;;;;;4971797;28;20207;-81
2020/12/14 11:45:29;;;;;;;5.67;3.03;;;9.20;99.90;;;;;;4941942;28;20695;-78
2020/12/14 11:47:55;;;;;;;5.33;3.20;;;9.20;99.90;;;;;;4943071;28;20180;-80
2020/12/14 11:50:20;;;;;;;6.03;3.37;;;9.30;99.90;;;;;;4948023;28;20209;-80
2020/12/14 11:52:46;;;;;;;2.87;2.30;;;9.30;99.90;;;;;;4989748;28;20203;-79
2020/12/14 11:55:15;;;;;;;4.33;2.97;;;9.40;99.90;;;;;;4989181;28;20290;-77
2020/12/14 11:57:41;;;;;;;4.00;2.73;;;9.40;99.90;;;;;;4992668;28;20237;-81
2020/12/14 12:00:07;;;;;;;4.87;2.70;;;9.40;99.90;;;;;;4993585;28;20721;-78
2020/12/14 12:02:32;;;;;;;3.70;2.40;;;9.40;99.90;;;;;;4992722;28;20259;-77
2020/12/14 12:04:58;;;;;;;4.60;2.60;;;9.50;99.90;;;;;;5009433;28;20176;-76
2020/12/14 12:07:23;;;;;;;4.90;2.60;;;9.50;99.90;;;;;;4992604;28;20695;-77
2020/12/14 12:09:49;;;;;;;4.03;2.97;;;9.60;99.90;;;;;;4993168;28;20585;-78
2020/12/14 12:12:15;;;;;;;4.20;2.50;;;9.60;99.90;;;;;;4992255;28;20694;-77
2020/12/14 12:14:40;;;;;;;4.27;2.57;;;9.70;99.90;;;;;;5008556;28;20220;-78
2020/12/14 12:17:06;;;;;;;4.90;2.57;;;9.70;99.90;;;;;;4975742;28;20272;-79
2020/12/14 12:19:31;;;;;;;8.33;3.07;;;9.80;99.90;;;;;;4991876;28;20216;-78
2020/12/14 12:21:59;;;;;;;6.07;2.43;;;9.70;99.90;;;;;;4975776;28;20219;-77
2020/12/14 12:24:25;;;;;;;6.37;2.70;;;9.80;99.90;;;;;;4992128;28;20270;-78
2020/12/14 12:26:50;;;;;;;4.50;2.37;;;9.80;99.90;;;;;;5008238;28;20249;-78
2020/12/14 12:29:17;;;;;;;5.93;2.53;;;9.80;99.90;;;;;;4976113;28;20176;-79
2020/12/14 12:31:48;;;;;;;3.10;2.20;;;9.80;99.90;;;;;;4975947;28;20254;-79
2020/12/14 12:34:14;;;;;;;3.90;2.53;;;9.80;99.90;;;;;;4993188;28;20164;-78
2020/12/14 12:36:39;;;;;;;4.50;2.10;;;9.80;99.90;;;;;;4992344;28;20180;-78
2020/12/14 12:39:05;;;;;;;3.27;2.43;;;9.80;99.90;;;;;;4977166;28;20183;-76
2020/12/14 12:41:30;;;;;;;7.40;2.83;;;9.70;99.90;;;;;;4992157;28;20203;-79
2020/12/14 12:43:57;;;;;;;5.53;2.87;;;9.80;99.90;;;;;;4992356;28;20190;-78
2020/12/14 12:46:26;;;;;;;3.67;2.43;;;9.80;99.90;;;;;;4991658;28;20184;-80
2020/12/14 12:48:52;;;;;;;3.30;2.90;;;9.80;99.90;;;;;;4991855;28;20188;-79
2020/12/14 12:51:17;;;;;;;5.57;2.53;;;9.80;99.90;;;;;;4975746;28;20219;-78
2020/12/14 12:53:43;;;;;;;5.20;2.43;;;9.90;99.90;;;;;;4975487;28;20193;-78
2020/12/14 12:56:08;;;;;;;3.40;2.40;;;9.90;99.90;;;;;;4991811;28;20180;-77
2020/12/14 12:58:34;;;;;;;4.43;2.77;;;9.80;99.90;;;;;;4995830;28;20244;-83